Time;durP1;ratioP1;P1;durP2;ratioP2;P2;SDS_P1;SDS_P2;PMS_P1;PMS_P2;Temp;Humidity;BMP_temperature;BMP_pressure;BME280_temperature;BME280_humidity;BME280_pressure;Samples;Min_cycle;Max_cycle;Signal;HPM_P1;HPM_P2
2023/03/12 00:00:25;;;;;;;;;;;;;;;;;;5116551;27;20424;-58
2023/03/12 00:02:51;;;;;;;;;;;;;;;;;;5119916;27;19945;-58
2023/03/12 00:05:17;;;;;;;;;;;;;;;;;;5116972;27;19927;-57
2023/03/12 00:07:43;;;;;;;;;;;;;;;;;;5117361;27;20399;-57
2023/03/12 00:10:09;;;;;;;;;;;;;;;;;;5118438;27;19948;-57
2023/03/12 00:12:35;;;;;;;;;;;;;;;;;;5116003;27;19930;-58
2023/03/12 00:15:01;;;;;;;;;;;;;;;;;;5118711;27;19924;-57
2023/03/12 00:17:27;;;;;;;;;;;;;;;;;;5115051;27;20043;-58
2023/03/12 00:19:53;;;;;;;;;;;;;;;;;;5116636;27;20029;-57
2023/03/12 00:22:21;;;;;;;;;;;;;;;;;;5117322;27;20416;-58
2023/03/12 00:24:47;;;;;;;;;;;;;;;;;;5115883;27;20043;-58
2023/03/12 00:27:13;;;;;;;;;;;;;;;;;;5101867;27;19943;-57
2023/03/12 00:29:39;;;;;;;;;;;;;;;;;;5117828;27;20417;-58
2023/03/12 00:32:05;;;;;;;;;;;;;;;;;;5116791;27;20014;-57
2023/03/12 00:34:31;;;;;;;;;;;;;;;;;;5114541;27;19924;-57
2023/03/12 00:36:57;;;;;;;;;;;;;;;;;;5110942;27;20018;-58
2023/03/12 00:39:23;;;;;;;;;;;;;;;;;;5121461;27;20416;-58
2023/03/12 00:41:49;;;;;;;;;;;;;;;;;;5123953;27;19924;-58
2023/03/12 00:44:15;;;;;;;;;;;;;;;;;;5121573;27;19928;-57
2023/03/12 00:46:41;;;;;;;;;;;;;;;;;;5123247;27;20304;-58
2023/03/12 00:49:07;;;;;;;;;;;;;;;;;;5122802;27;19924;-57
2023/03/12 00:51:33;;;;;;;;;;;;;;;;;;5104244;27;19939;-57
2023/03/12 00:53:59;;;;;;;;;;;;;;;;;;5120184;27;20283;-57
2023/03/12 00:56:26;;;;;;;;;;;;;;;;;;5122616;27;20060;-57
2023/03/12 00:58:52;;;;;;;;;;;;;;;;;;5123095;27;19930;-57
2023/03/12 01:01:18;;;;;;;;;;;;;;;;;;5121318;27;19937;-57
2023/03/12 01:03:44;;;;;;;;;;;;;;;;;;5121094;27;20134;-57
2023/03/12 01:06:10;;;;;;;;;;;;;;;;;;5116144;27;19946;-58
2023/03/12 01:08:36;;;;;;;;;;;;;;;;;;5118286;27;19974;-57
2023/03/12 01:11:02;;;;;;;;;;;;;;;;;;5121815;27;19971;-58
2023/03/12 01:13:28;;;;;;;;;;;;;;;;;;5120654;27;19924;-53
2023/03/12 01:15:54;;;;;;;;;;;;;;;;;;5117448;28;19969;-55
2023/03/12 01:18:20;;;;;;;;;;;;;;;;;;5118496;28;19963;-57
2023/03/12 01:20:46;;;;;;;;;;;;;;;;;;5121100;28;19998;-57
2023/03/12 01:23:12;;;;;;;;;;;;;;;;;;5122690;28;19975;-58
2023/03/12 01:25:38;;;;;;;;;;;;;;;;;;5122516;28;19971;-58
2023/03/12 01:28:04;;;;;;;;;;;;;;;;;;5121939;28;19975;-57
2023/03/12 01:30:30;;;;;;;;;;;;;;;;;;5122068;28;19923;-58
2023/03/12 01:32:56;;;;;;;;;;;;;;;;;;5119116;28;19928;-57
2023/03/12 01:35:22;;;;;;;;;;;;;;;;;;5120057;27;19985;-58
2023/03/12 01:37:48;;;;;;;;;;;;;;;;;;5120546;27;20384;-58
2023/03/12 01:40:14;;;;;;;;;;;;;;;;;;5124543;27;19927;-58
2023/03/12 01:42:40;;;;;;;;;;;;;;;;;;5125988;27;19977;-57
2023/03/12 01:45:06;;;;;;;;;;;;;;;;;;5125267;27;20373;-58
2023/03/12 01:47:32;;;;;;;;;;;;;;;;;;5126858;27;19931;-58
2023/03/12 01:49:58;;;;;;;;;;;;;;;;;;5122374;27;19930;-57
2023/03/12 01:52:24;;;;;;;;;;;;;;;;;;5124241;27;19923;-53
2023/03/12 01:54:50;;;;;;;;;;;;;;;;;;5127567;27;19931;-58
2023/03/12 01:57:16;;;;;;;;;;;;;;;;;;5126161;27;20333;-58
2023/03/12 01:59:42;;;;;;;;;;;;;;;;;;5125596;27;20018;-58
2023/03/12 02:02:08;;;;;;;;;;;;;;;;;;5118979;27;19927;-57
2023/03/12 02:04:34;;;;;;;;;;;;;;;;;;5125728;27;19932;-58
2023/03/12 02:07:00;;;;;;;;;;;;;;;;;;5124440;27;19930;-58
2023/03/12 02:09:26;;;;;;;;;;;;;;;;;;5129355;22;20027;-58
2023/03/12 02:11:52;;;;;;;;;;;;;;;;;;5045541;28;20063;-58
2023/03/12 02:14:18;;;;;;;;;;;;;;;;;;5042172;28;20486;-58
2023/03/12 02:16:45;;;;;;;;;;;;;;;;;;5045023;28;20245;-58
2023/03/12 02:19:11;;;;;;;;;;;;;;;;;;5027049;28;20430;-58
2023/03/12 02:21:37;;;;;;;;;;;;;;;;;;5044373;28;19951;-58
2023/03/12 02:24:03;;;;;;;;;;;;;;;;;;5045027;28;19925;-58
2023/03/12 02:26:29;;;;;;;;;;;;;;;;;;5044830;28;20003;-58
2023/03/12 02:28:55;;;;;;;;;;;;;;;;;;5043939;28;19925;-54
2023/03/12 02:31:21;;;;;;;;;;;;;;;;;;5045053;28;19929;-58
2023/03/12 02:33:47;;;;;;;;;;;;;;;;;;5045814;28;19931;-58
2023/03/12 02:36:13;;;;;;;;;;;;;;;;;;5045332;28;19963;-57
2023/03/12 02:38:39;;;;;;;;;;;;;;;;;;5043787;28;19925;-58
2023/03/12 02:41:05;;;;;;;;;;;;;;;;;;5045536;28;19925;-57
2023/03/12 02:43:31;;;;;;;;;;;;;;;;;;5043936;28;20589;-57
2023/03/12 02:45:57;;;;;;;;;;;;;;;;;;5044314;28;20303;-57
2023/03/12 02:48:23;;;;;;;;;;;;;;;;;;5044597;28;19920;-58
2023/03/12 02:50:49;;;;;;;;;;;;;;;;;;5045439;28;20461;-57
2023/03/12 02:53:15;;;;;;;;;;;;;;;;;;5044293;28;19945;-57
2023/03/12 02:55:41;;;;;;;;;;;;;;;;;;5040868;28;19947;-58
2023/03/12 02:58:07;;;;;;;;;;;;;;;;;;5044877;28;20382;-57
2023/03/12 03:00:33;;;;;;;;;;;;;;;;;;5043865;28;19964;-57
2023/03/12 03:02:59;;;;;;;;;;;;;;;;;;5043598;28;19925;-58
2023/03/12 03:05:25;;;;;;;;;;;;;;;;;;5044253;28;20622;-52
2023/03/12 03:07:51;;;;;;;;;;;;;;;;;;5044746;28;19996;-55
2023/03/12 03:10:17;;;;;;;;;;;;;;;;;;5043998;28;20322;-58
2023/03/12 03:12:43;;;;;;;;;;;;;;;;;;5047243;28;19968;-58
2023/03/12 03:15:09;;;;;;;;;;;;;;;;;;5044967;28;20596;-57
2023/03/12 03:17:35;;;;;;;;;;;;;;;;;;5045691;28;19960;-57
2023/03/12 03:20:01;;;;;;;;;;;;;;;;;;5045104;28;19929;-57
2023/03/12 03:22:27;;;;;;;;;;;;;;;;;;5042895;28;19925;-57
2023/03/12 03:24:53;;;;;;;;;;;;;;;;;;5043476;28;19925;-58
2023/03/12 03:27:19;;;;;;;;;;;;;;;;;;5043962;28;19940;-58
2023/03/12 03:29:45;;;;;;;;;;;;;;;;;;5043063;28;19929;-58
2023/03/12 03:32:11;;;;;;;;;;;;;;;;;;5043601;28;19924;-57
2023/03/12 03:34:38;;;;;;;;;;;;;;;;;;5044844;28;19932;-58
2023/03/12 03:37:04;;;;;;;;;;;;;;;;;;5043319;28;19925;-54
2023/03/12 03:39:30;;;;;;;;;;;;;;;;;;5043120;28;19939;-58
2023/03/12 03:41:56;;;;;;;;;;;;;;;;;;5043585;28;20397;-57
2023/03/12 03:44:22;;;;;;;;;;;;;;;;;;5043213;28;19929;-58
2023/03/12 03:46:48;;;;;;;;;;;;;;;;;;5044156;28;19929;-58
2023/03/12 03:49:15;;;;;;;;;;;;;;;;;;5043536;28;19983;-58
2023/03/12 03:51:41;;;;;;;;;;;;;;;;;;5042546;28;20382;-57
2023/03/12 03:54:07;;;;;;;;;;;;;;;;;;5042949;28;19933;-58
2023/03/12 03:56:33;;;;;;;;;;;;;;;;;;5043508;28;19981;-57
2023/03/12 03:59:00;;;;;;;;;;;;;;;;;;5040299;28;20362;-57
2023/03/12 04:01:26;;;;;;;;;;;;;;;;;;5042317;28;19925;-57
2023/03/12 04:03:52;;;;;;;;;;;;;;;;;;5044061;28;19925;-58
2023/03/12 04:06:18;;;;;;;;;;;;;;;;;;5042838;28;19975;-58
2023/03/12 04:08:45;;;;;;;;;;;;;;;;;;5042094;28;19940;-58
2023/03/12 04:11:11;;;;;;;;;;;;;;;;;;5041732;28;19925;-58
2023/03/12 04:13:37;;;;;;;;;;;;;;;;;;5042720;28;19921;-58
2023/03/12 04:16:03;;;;;;;;;;;;;;;;;;5043033;28;19960;-57
2023/03/12 04:18:29;;;;;;;;;;;;;;;;;;5040515;28;19925;-58
2023/03/12 04:20:55;;;;;;;;;;;;;;;;;;5042674;28;19927;-56
2023/03/12 04:23:21;;;;;;;;;;;;;;;;;;5042680;28;19933;-57
2023/03/12 04:25:47;;;;;;;;;;;;;;;;;;5041203;28;19924;-57
2023/03/12 04:28:12;;;;;;;;;;;;;;;;;;5042407;28;19948;-58
2023/03/12 04:30:39;;;;;;;;;;;;;;;;;;5043232;28;19929;-57
2023/03/12 04:33:05;;;;;;;;;;;;;;;;;;5042225;28;20425;-57
2023/03/12 04:35:31;;;;;;;;;;;;;;;;;;5042706;28;19936;-57
2023/03/12 04:37:57;;;;;;;;;;;;;;;;;;5041862;28;19931;-57
2023/03/12 04:40:23;;;;;;;;;;;;;;;;;;5042659;28;20015;-57
2023/03/12 04:42:49;;;;;;;;;;;;;;;;;;5042946;28;19928;-58
2023/03/12 04:45:15;;;;;;;;;;;;;;;;;;5042391;28;20163;-58
2023/03/12 04:47:41;;;;;;;;;;;;;;;;;;5042184;28;20453;-58
2023/03/12 04:50:07;;;;;;;;;;;;;;;;;;5039983;28;19924;-58
2023/03/12 04:52:33;;;;;;;;;;;;;;;;;;5043057;28;20015;-58
2023/03/12 04:54:59;;;;;;;;;;;;;;;;;;5042974;28;20015;-57
2023/03/12 04:57:25;;;;;;;;;;;;;;;;;;5042329;28;19925;-54
2023/03/12 04:59:51;;;;;;;;;;;;;;;;;;5042045;28;19948;-58
2023/03/12 05:02:17;;;;;;;;;;;;;;;;;;5042628;28;20374;-57
2023/03/12 05:04:43;;;;;;;;;;;;;;;;;;5042256;28;19925;-58
2023/03/12 05:07:09;;;;;;;;;;;;;;;;;;5041271;28;20006;-57
2023/03/12 05:09:35;;;;;;;;;;;;;;;;;;5042031;28;19932;-58
2023/03/12 05:12:01;;;;;;;;;;;;;;;;;;5041462;28;20344;-58
2023/03/12 05:14:27;;;;;;;;;;;;;;;;;;5041680;28;19994;-58
2023/03/12 05:16:53;;;;;;;;;;;;;;;;;;5043146;28;19932;-58
2023/03/12 05:19:19;;;;;;;;;;;;;;;;;;5041696;28;19925;-58
2023/03/12 05:21:45;;;;;;;;;;;;;;;;;;5041426;28;19936;-58
2023/03/12 05:24:11;;;;;;;;;;;;;;;;;;5042394;28;19987;-58
2023/03/12 05:26:37;;;;;;;;;;;;;;;;;;5042440;28;19929;-58
2023/03/12 05:29:03;;;;;;;;;;;;;;;;;;5040838;28;19936;-50
2023/03/12 05:31:31;;;;;;;;;;;;;;;;;;5042128;28;20402;-57
2023/03/12 05:33:57;;;;;;;;;;;;;;;;;;5042974;28;19928;-58
2023/03/12 05:36:23;;;;;;;;;;;;;;;;;;5040871;28;19929;-58
2023/03/12 05:38:49;;;;;;;;;;;;;;;;;;5040985;28;19932;-58
2023/03/12 05:41:15;;;;;;;;;;;;;;;;;;5042682;28;19978;-58
2023/03/12 05:43:41;;;;;;;;;;;;;;;;;;5041109;28;20007;-58
2023/03/12 05:46:07;;;;;;;;;;;;;;;;;;5041823;28;19932;-57
2023/03/12 05:48:33;;;;;;;;;;;;;;;;;;5040630;28;19928;-58
2023/03/12 05:50:59;;;;;;;;;;;;;;;;;;5042185;28;20434;-57
2023/03/12 05:53:25;;;;;;;;;;;;;;;;;;5041965;28;19925;-57
2023/03/12 05:55:51;;;;;;;;;;;;;;;;;;5042603;28;19924;-57
2023/03/12 05:58:18;;;;;;;;;;;;;;;;;;5041536;28;19929;-57
2023/03/12 06:00:44;;;;;;;;;;;;;;;;;;5041670;28;19932;-58
2023/03/12 06:03:10;;;;;;;;;;;;;;;;;;5038468;28;20447;-57
2023/03/12 06:05:36;;;;;;;;;;;;;;;;;;5039727;28;19925;-58
2023/03/12 06:08:02;;;;;;;;;;;;;;;;;;5039897;28;19979;-58
2023/03/12 06:10:28;;;;;;;;;;;;;;;;;;5041806;28;19950;-57
2023/03/12 06:12:54;;;;;;;;;;;;;;;;;;5038390;28;19924;-57
2023/03/12 06:15:20;;;;;;;;;;;;;;;;;;5042214;28;19976;-57
2023/03/12 06:17:46;;;;;;;;;;;;;;;;;;5041157;28;20404;-57
2023/03/12 06:20:12;;;;;;;;;;;;;;;;;;5040743;28;19925;-58
2023/03/12 06:22:38;;;;;;;;;;;;;;;;;;5042737;28;19925;-58
2023/03/12 06:25:04;;;;;;;;;;;;;;;;;;5045171;28;20374;-57
2023/03/12 06:27:30;;;;;;;;;;;;;;;;;;5045696;28;19932;-58
2023/03/12 06:29:56;;;;;;;;;;;;;;;;;;5044249;28;19976;-58
2023/03/12 06:32:22;;;;;;;;;;;;;;;;;;5045351;28;20290;-58
2023/03/12 06:34:48;;;;;;;;;;;;;;;;;;5045186;28;20374;-58
2023/03/12 06:37:14;;;;;;;;;;;;;;;;;;5042986;28;19986;-58
2023/03/12 06:39:40;;;;;;;;;;;;;;;;;;5045458;28;20020;-58
2023/03/12 06:42:06;;;;;;;;;;;;;;;;;;5045141;28;19932;-58
2023/03/12 06:44:32;;;;;;;;;;;;;;;;;;5043921;28;19931;-58
2023/03/12 06:46:58;;;;;;;;;;;;;;;;;;5044787;28;20015;-58
2023/03/12 06:49:26;;;;;;;;;;;;;;;;;;5044803;28;19936;-58
2023/03/12 06:51:52;;;;;;;;;;;;;;;;;;5042346;28;19974;-58
2023/03/12 06:54:18;;;;;;;;;;;;;;;;;;5040867;28;19924;-58
2023/03/12 06:56:44;;;;;;;;;;;;;;;;;;5045389;28;19999;-59
2023/03/12 06:59:11;;;;;;;;;;;;;;;;;;5043979;28;20422;-58
2023/03/12 07:01:37;;;;;;;;;;;;;;;;;;5044013;28;20075;-58
2023/03/12 07:04:02;;;;;;;;;;;;;;;;;;5043904;28;19925;-58
2023/03/12 07:06:28;;;;;;;;;;;;;;;;;;5043561;28;20294;-59
2023/03/12 07:08:54;;;;;;;;;;;;;;;;;;5040221;28;19936;-53
2023/03/12 07:11:20;;;;;;;;;;;;;;;;;;5045416;28;19942;-58
2023/03/12 07:13:46;;;;;;;;;;;;;;;;;;5043190;28;19948;-59
2023/03/12 07:16:12;;;;;;;;;;;;;;;;;;5043980;28;20358;-58
2023/03/12 07:18:39;;;;;;;;;;;;;;;;;;5044024;28;19929;-59
2023/03/12 07:21:05;;;;;;;;;;;;;;;;;;5044008;28;20390;-57
2023/03/12 07:23:31;;;;;;;;;;;;;;;;;;5044420;28;19935;-58
2023/03/12 07:25:57;;;;;;;;;;;;;;;;;;5044579;28;19932;-58
2023/03/12 07:28:23;;;;;;;;;;;;;;;;;;5041794;28;19924;-58
2023/03/12 07:30:49;;;;;;;;;;;;;;;;;;5041476;28;19943;-59
2023/03/12 07:33:15;;;;;;;;;;;;;;;;;;5045669;28;19935;-59
2023/03/12 07:35:41;;;;;;;;;;;;;;;;;;5044132;28;19929;-58
2023/03/12 07:38:07;;;;;;;;;;;;;;;;;;5044188;28;20413;-59
2023/03/12 07:40:33;;;;;;;;;;;;;;;;;;5046112;28;19925;-58
2023/03/12 07:42:59;;;;;;;;;;;;;;;;;;5045720;28;20469;-58
2023/03/12 07:45:25;;;;;;;;;;;;;;;;;;5046264;28;20008;-58
2023/03/12 07:47:51;;;;;;;;;;;;;;;;;;5046344;28;20441;-58
2023/03/12 07:50:17;;;;;;;;;;;;;;;;;;5046425;28;19925;-59
2023/03/12 07:52:43;;;;;;;;;;;;;;;;;;5046592;28;19931;-59
2023/03/12 07:55:09;;;;;;;;;;;;;;;;;;5045592;28;19929;-60
2023/03/12 07:57:35;;;;;;;;;;;;;;;;;;5045601;28;19972;-59
2023/03/12 08:00:04;;;;;;;;;;;;;;;;;;5046192;28;19972;-59
2023/03/12 08:02:30;;;;;;;;;;;;;;;;;;5045474;28;19925;-59
2023/03/12 08:04:56;;;;;;;;;;;;;;;;;;5046005;28;20016;-59
2023/03/12 08:07:22;;;;;;;;;;;;;;;;;;5046125;28;20336;-60
2023/03/12 08:09:48;;;;;;;;;;;;;;;;;;5045927;28;19925;-60
2023/03/12 08:12:14;;;;;;;;;;;;;;;;;;5045386;28;20619;-59
2023/03/12 08:14:41;;;;;;;;;;;;;;;;;;5044820;28;19921;-60
2023/03/12 08:17:07;;;;;;;;;;;;;;;;;;5045558;28;19990;-60
2023/03/12 08:19:33;;;;;;;;;;;;;;;;;;5045927;28;20447;-60
2023/03/12 08:21:59;;;;;;;;;;;;;;;;;;5045908;28;19925;-60
2023/03/12 08:24:25;;;;;;;;;;;;;;;;;;5045336;28;20653;-55
2023/03/12 08:26:51;;;;;;;;;;;;;;;;;;5046036;28;19925;-60
2023/03/12 08:29:17;;;;;;;;;;;;;;;;;;5044469;28;19924;-61
2023/03/12 08:31:43;;;;;;;;;;;;;;;;;;5045464;28;19931;-60
2023/03/12 08:34:09;;;;;;;;;;;;;;;;;;5044688;28;19924;-59
2023/03/12 08:36:36;;;;;;;;;;;;;;;;;;5045535;28;19925;-58
2023/03/12 08:39:02;;;;;;;;;;;;;;;;;;5045519;28;19924;-59
2023/03/12 08:41:29;;;;;;;;;;;;;;;;;;5044545;28;19931;-60
2023/03/12 08:43:55;;;;;;;;;;;;;;;;;;5044518;28;19925;-57
2023/03/12 08:46:21;;;;;;;;;;;;;;;;;;5044693;28;19925;-58
2023/03/12 08:48:47;;;;;;;;;;;;;;;;;;5039757;28;19924;-58
2023/03/12 08:51:13;;;;;;;;;;;;;;;;;;5044850;28;19931;-59
2023/03/12 08:53:39;;;;;;;;;;;;;;;;;;5044223;28;20004;-59
2023/03/12 08:56:05;;;;;;;;;;;;;;;;;;5043950;28;20040;-59
2023/03/12 08:58:31;;;;;;;;;;;;;;;;;;5044300;28;19925;-58
2023/03/12 09:00:57;;;;;;;;;;;;;;;;;;5044840;28;19924;-59
2023/03/12 09:03:23;;;;;;;;;;;;;;;;;;5045097;28;19932;-59
2023/03/12 09:05:51;;;;;;;;;;;;;;;;;;5044941;28;22485;-59
2023/03/12 09:08:17;;;;;;;;;;;;;;;;;;5044521;28;20677;-59
2023/03/12 09:10:43;;;;;;;;;;;;;;;;;;5044759;28;20003;-59
2023/03/12 09:13:10;;;;;;;;;;;;;;;;;;5042679;28;19939;-59
2023/03/12 09:15:36;;;;;;;;;;;;;;;;;;5044741;28;19920;-59
2023/03/12 09:18:02;;;;;;;;;;;;;;;;;;5044897;28;19925;-58
2023/03/12 09:20:28;;;;;;;;;;;;;;;;;;5044780;28;19924;-58
2023/03/12 09:22:54;;;;;;;;;;;;;;;;;;5044960;28;19931;-58
2023/03/12 09:25:22;;;;;;;;;;;;;;;;;;5044858;28;19951;-58
2023/03/12 09:27:48;;;;;;;;;;;;;;;;;;5043740;28;19921;-58
2023/03/12 09:30:14;;;;;;;;;;;;;;;;;;5044198;28;19925;-58
2023/03/12 09:32:40;;;;;;;;;;;;;;;;;;5038105;28;19921;-58
2023/03/12 09:35:06;;;;;;;;;;;;;;;;;;5044423;28;19940;-58
2023/03/12 09:37:32;;;;;;;;;;;;;;;;;;5044659;28;19925;-58
2023/03/12 09:39:58;;;;;;;;;;;;;;;;;;5044516;28;20417;-58
2023/03/12 09:42:24;;;;;;;;;;;;;;;;;;5043749;28;20374;-58
2023/03/12 09:44:50;;;;;;;;;;;;;;;;;;5045261;28;19932;-58
2023/03/12 09:47:16;;;;;;;;;;;;;;;;;;5044247;28;20279;-58
2023/03/12 09:49:43;;;;;;;;;;;;;;;;;;5039111;28;19925;-59
2023/03/12 09:52:09;;;;;;;;;;;;;;;;;;5044147;28;20374;-58
2023/03/12 09:54:35;;;;;;;;;;;;;;;;;;5044611;28;19932;-58
2023/03/12 09:57:01;;;;;;;;;;;;;;;;;;5046354;28;19931;-59
2023/03/12 09:59:27;;;;;;;;;;;;;;;;;;5047909;28;19925;-58
2023/03/12 10:01:53;;;;;;;;;;;;;;;;;;5048827;28;19931;-59
2023/03/12 10:04:19;;;;;;;;;;;;;;;;;;5048127;28;20023;-59
2023/03/12 10:06:45;;;;;;;;;;;;;;;;;;5048312;28;20023;-59
2023/03/12 10:09:11;;;;;;;;;;;;;;;;;;5047624;28;19928;-59
2023/03/12 10:11:38;;;;;;;;;;;;;;;;;;5046975;28;20344;-59
2023/03/12 10:14:04;;;;;;;;;;;;;;;;;;5046626;28;20374;-58
2023/03/12 10:16:30;;;;;;;;;;;;;;;;;;5048263;28;19925;-59
2023/03/12 10:18:57;;;;;;;;;;;;;;;;;;5048169;28;19938;-59
2023/03/12 10:21:23;;;;;;;;;;;;;;;;;;5047579;28;20366;-59
2023/03/12 10:23:49;;;;;;;;;;;;;;;;;;5048089;28;19929;-59
2023/03/12 10:26:15;;;;;;;;;;;;;;;;;;5047678;28;19929;-59
2023/03/12 10:28:41;;;;;;;;;;;;;;;;;;5046954;28;19921;-59
2023/03/12 10:31:07;;;;;;;;;;;;;;;;;;5047114;28;19950;-59
2023/03/12 10:33:33;;;;;;;;;;;;;;;;;;5048069;28;19921;-59
2023/03/12 10:35:59;;;;;;;;;;;;;;;;;;5047608;28;19967;-58
2023/03/12 10:38:25;;;;;;;;;;;;;;;;;;5047487;28;19924;-58
2023/03/12 10:40:51;;;;;;;;;;;;;;;;;;5047968;28;19924;-58
2023/03/12 10:43:17;;;;;;;;;;;;;;;;;;5046488;28;19971;-59
2023/03/12 10:45:43;;;;;;;;;;;;;;;;;;5046458;28;19931;-59
2023/03/12 10:48:10;;;;;;;;;;;;;;;;;;5047260;28;19932;-59
2023/03/12 10:50:36;;;;;;;;;;;;;;;;;;5047513;28;19932;-58
2023/03/12 10:53:02;;;;;;;;;;;;;;;;;;5047152;28;20019;-58
2023/03/12 10:55:28;;;;;;;;;;;;;;;;;;5047249;28;20402;-59
2023/03/12 10:57:54;;;;;;;;;;;;;;;;;;5047070;28;19924;-55
2023/03/12 11:00:21;;;;;;;;;;;;;;;;;;5047401;28;20804;-58
2023/03/12 11:02:47;;;;;;;;;;;;;;;;;;5047113;28;19925;-58
2023/03/12 11:05:13;;;;;;;;;;;;;;;;;;5047304;28;19924;-58
2023/03/12 11:07:39;;;;;;;;;;;;;;;;;;5046137;28;19925;-58
2023/03/12 11:10:05;;;;;;;;;;;;;;;;;;5046249;28;19984;-59
2023/03/12 11:12:31;;;;;;;;;;;;;;;;;;5046853;28;21510;-58
2023/03/12 11:14:57;;;;;;;;;;;;;;;;;;5046966;28;20041;-58
2023/03/12 11:17:23;;;;;;;;;;;;;;;;;;5046817;28;19932;-58
2023/03/12 11:19:49;;;;;;;;;;;;;;;;;;5047332;28;19975;-58
2023/03/12 11:22:15;;;;;;;;;;;;;;;;;;5046791;28;19929;-58
2023/03/12 11:24:41;;;;;;;;;;;;;;;;;;5046464;28;19976;-58
2023/03/12 11:27:07;;;;;;;;;;;;;;;;;;5046147;28;20378;-58
2023/03/12 11:29:38;;;;;;;;;;;;;;;;;;5045835;28;20435;-58
2023/03/12 11:32:04;;;;;;;;;;;;;;;;;;5046679;28;20501;-57
2023/03/12 11:34:30;;;;;;;;;;;;;;;;;;5046603;28;20459;-58
2023/03/12 11:36:56;;;;;;;;;;;;;;;;;;5046631;28;20342;-58
2023/03/12 11:39:22;;;;;;;;;;;;;;;;;;5046888;28;20519;-58
2023/03/12 11:41:48;;;;;;;;;;;;;;;;;;5046039;28;19947;-58
2023/03/12 11:44:14;;;;;;;;;;;;;;;;;;5046069;28;19976;-58
2023/03/12 11:46:40;;;;;;;;;;;;;;;;;;5046398;28;20007;-59
2023/03/12 11:49:06;;;;;;;;;;;;;;;;;;5045711;28;20626;-58
2023/03/12 11:51:32;;;;;;;;;;;;;;;;;;5046249;28;19980;-58
2023/03/12 11:53:58;;;;;;;;;;;;;;;;;;5046392;28;19960;-58
2023/03/12 11:56:24;;;;;;;;;;;;;;;;;;5046678;28;19929;-58
2023/03/12 11:58:50;;;;;;;;;;;;;;;;;;5045673;28;19925;-59
2023/03/12 12:01:16;;;;;;;;;;;;;;;;;;5044932;28;19925;-58
2023/03/12 12:03:42;;;;;;;;;;;;;;;;;;5045716;28;20294;-58
2023/03/12 12:06:08;;;;;;;;;;;;;;;;;;5045612;28;19925;-59
2023/03/12 12:08:34;;;;;;;;;;;;;;;;;;5045419;28;19925;-58
2023/03/12 12:11:00;;;;;;;;;;;;;;;;;;5046057;28;19929;-58
2023/03/12 12:13:26;;;;;;;;;;;;;;;;;;5044353;28;20019;-58
2023/03/12 12:15:53;;;;;;;;;;;;;;;;;;5046445;28;19925;-61
2023/03/12 12:18:19;;;;;;;;;;;;;;;;;;5045687;28;19925;-58
2023/03/12 12:20:45;;;;;;;;;;;;;;;;;;5044464;28;20848;-57
2023/03/12 12:23:11;;;;;;;;;;;;;;;;;;5045670;28;19925;-58
2023/03/12 12:25:37;;;;;;;;;;;;;;;;;;5045739;28;20444;-57
2023/03/12 12:28:03;;;;;;;;;;;;;;;;;;5044164;28;20374;-58
2023/03/12 12:30:29;;;;;;;;;;;;;;;;;;5045972;28;19931;-57
2023/03/12 12:32:55;;;;;;;;;;;;;;;;;;5042399;28;19924;-57
2023/03/12 12:35:21;;;;;;;;;;;;;;;;;;5026018;28;19925;-57
2023/03/12 12:37:47;;;;;;;;;;;;;;;;;;5040957;28;20337;-57
2023/03/12 12:40:13;;;;;;;;;;;;;;;;;;5045439;28;20443;-57
2023/03/12 12:42:39;;;;;;;;;;;;;;;;;;5043798;28;19925;-58
2023/03/12 12:45:05;;;;;;;;;;;;;;;;;;5037989;28;19925;-57
2023/03/12 12:47:31;;;;;;;;;;;;;;;;;;5042868;28;19955;-59
2023/03/12 12:49:57;;;;;;;;;;;;;;;;;;5042567;28;19932;-57
2023/03/12 12:52:23;;;;;;;;;;;;;;;;;;5043301;28;19986;-57
2023/03/12 12:54:49;;;;;;;;;;;;;;;;;;5043217;28;19933;-57
2023/03/12 12:57:15;;;;;;;;;;;;;;;;;;5041915;28;19928;-57
2023/03/12 12:59:41;;;;;;;;;;;;;;;;;;5043211;28;20382;-57
2023/03/12 13:02:07;;;;;;;;;;;;;;;;;;5042667;28;19986;-57
2023/03/12 13:04:33;;;;;;;;;;;;;;;;;;5043182;28;19982;-57
2023/03/12 13:06:59;;;;;;;;;;;;;;;;;;5042829;28;19939;-56
2023/03/12 13:09:25;;;;;;;;;;;;;;;;;;5041314;28;19928;-56
2023/03/12 13:11:51;;;;;;;;;;;;;;;;;;5042711;28;19935;-56
2023/03/12 13:14:17;;;;;;;;;;;;;;;;;;5041979;28;19931;-57
2023/03/12 13:16:43;;;;;;;;;;;;;;;;;;5042383;28;20398;-56
2023/03/12 13:19:09;;;;;;;;;;;;;;;;;;5041923;28;19976;-57
2023/03/12 13:21:35;;;;;;;;;;;;;;;;;;5042659;28;19964;-56
2023/03/12 13:24:02;;;;;;;;;;;;;;;;;;5042796;28;19932;-57
2023/03/12 13:26:28;;;;;;;;;;;;;;;;;;5025374;28;20019;-56
2023/03/12 13:28:54;;;;;;;;;;;;;;;;;;5033247;28;20032;-56
2023/03/12 13:31:20;;;;;;;;;;;;;;;;;;5044107;28;19952;-57
2023/03/12 13:33:47;;;;;;;;;;;;;;;;;;5046846;28;19928;-58
2023/03/12 13:36:13;;;;;;;;;;;;;;;;;;5046372;28;20019;-57
2023/03/12 13:38:39;;;;;;;;;;;;;;;;;;5046197;28;19986;-57
2023/03/12 13:41:05;;;;;;;;;;;;;;;;;;5043109;28;19929;-56
2023/03/12 13:43:32;;;;;;;;;;;;;;;;;;5041767;28;19982;-57
2023/03/12 13:45:58;;;;;;;;;;;;;;;;;;5042595;28;20614;-57
2023/03/12 13:48:24;;;;;;;;;;;;;;;;;;5045460;28;19976;-57
2023/03/12 13:50:50;;;;;;;;;;;;;;;;;;5046364;28;19966;-57
2023/03/12 13:53:17;;;;;;;;;;;;;;;;;;5042138;28;21306;-57
2023/03/12 13:55:43;;;;;;;;;;;;;;;;;;5045356;28;19935;-57
2023/03/12 13:58:09;;;;;;;;;;;;;;;;;;5045282;28;19925;-56
2023/03/12 14:00:35;;;;;;;;;;;;;;;;;;5044128;28;19964;-57
2023/03/12 14:03:01;;;;;;;;;;;;;;;;;;5045921;28;19937;-56
2023/03/12 14:05:28;;;;;;;;;;;;;;;;;;5044086;28;19929;-56
2023/03/12 14:07:54;;;;;;;;;;;;;;;;;;5040341;28;19932;-57
2023/03/12 14:10:20;;;;;;;;;;;;;;;;;;5044067;28;19925;-57
2023/03/12 14:12:46;;;;;;;;;;;;;;;;;;5047248;28;19925;-57
2023/03/12 14:15:12;;;;;;;;;;;;;;;;;;5048261;28;19936;-56
2023/03/12 14:17:38;;;;;;;;;;;;;;;;;;5047551;28;19924;-56
2023/03/12 14:20:06;;;;;;;;;;;;;;;;;;5048588;28;19932;-55
2023/03/12 14:22:32;;;;;;;;;;;;;;;;;;5047802;28;19929;-57
2023/03/12 14:25:00;;;;;;;;;;;;;;;;;;5041232;28;20232;-56
2023/03/12 14:27:26;;;;;;;;;;;;;;;;;;5047594;28;20007;-57
2023/03/12 14:29:52;;;;;;;;;;;;;;;;;;5048944;28;20012;-57
2023/03/12 14:32:18;;;;;;;;;;;;;;;;;;5048617;28;19929;-56
2023/03/12 14:34:44;;;;;;;;;;;;;;;;;;5048735;28;20290;-56
2023/03/12 14:37:10;;;;;;;;;;;;;;;;;;5048416;28;20585;-56
2023/03/12 14:39:36;;;;;;;;;;;;;;;;;;5047850;28;20005;-56
2023/03/12 14:42:04;;;;;;;;;;;;;;;;;;5046956;28;20390;-57
2023/03/12 14:44:30;;;;;;;;;;;;;;;;;;5047193;28;19925;-56
2023/03/12 14:46:56;;;;;;;;;;;;;;;;;;5048260;28;20436;-56
2023/03/12 14:49:22;;;;;;;;;;;;;;;;;;5048805;28;19935;-56
2023/03/12 14:51:48;;;;;;;;;;;;;;;;;;5047819;28;19924;-56
2023/03/12 14:54:14;;;;;;;;;;;;;;;;;;5048289;28;20653;-56
2023/03/12 14:56:40;;;;;;;;;;;;;;;;;;5045479;28;20768;-56
2023/03/12 14:59:06;;;;;;;;;;;;;;;;;;5047364;28;20375;-56
2023/03/12 15:01:32;;;;;;;;;;;;;;;;;;5047654;28;20016;-56
2023/03/12 15:04:00;;;;;;;;;;;;;;;;;;5047816;28;20293;-55
2023/03/12 15:06:26;;;;;;;;;;;;;;;;;;5042983;28;19936;-55
2023/03/12 15:08:52;;;;;;;;;;;;;;;;;;5042731;28;20031;-56
2023/03/12 15:11:18;;;;;;;;;;;;;;;;;;5035497;28;20630;-58
2023/03/12 15:13:46;;;;;;;;;;;;;;;;;;5030476;28;19931;-57
2023/03/12 15:16:12;;;;;;;;;;;;;;;;;;5029822;28;19929;-57
2023/03/12 15:18:38;;;;;;;;;;;;;;;;;;5032017;28;20447;-57
2023/03/12 15:21:04;;;;;;;;;;;;;;;;;;5032950;28;20016;-54
2023/03/12 15:23:30;;;;;;;;;;;;;;;;;;5031732;28;19932;-56
2023/03/12 15:25:56;;;;;;;;;;;;;;;;;;5033896;28;19983;-56
2023/03/12 15:28:22;;;;;;;;;;;;;;;;;;5029263;28;20356;-56
2023/03/12 15:30:48;;;;;;;;;;;;;;;;;;5032972;28;19958;-57
2023/03/12 15:33:14;;;;;;;;;;;;;;;;;;5028955;28;19933;-57
2023/03/12 15:35:40;;;;;;;;;;;;;;;;;;5030810;28;19960;-57
2023/03/12 15:38:06;;;;;;;;;;;;;;;;;;5041954;28;20020;-56
2023/03/12 15:40:32;;;;;;;;;;;;;;;;;;5031844;28;19929;-57
2023/03/12 15:43:01;;;;;;;;;;;;;;;;;;5043052;28;20386;-57
2023/03/12 15:45:27;;;;;;;;;;;;;;;;;;5044466;28;19960;-58
2023/03/12 15:47:53;;;;;;;;;;;;;;;;;;5044664;28;19998;-57
2023/03/12 15:50:20;;;;;;;;;;;;;;;;;;5044667;28;19978;-57
2023/03/12 15:52:46;;;;;;;;;;;;;;;;;;5043074;28;20015;-57
2023/03/12 15:55:12;;;;;;;;;;;;;;;;;;5037330;28;19933;-57
2023/03/12 15:57:38;;;;;;;;;;;;;;;;;;5043824;28;19940;-57
2023/03/12 16:00:04;;;;;;;;;;;;;;;;;;5042872;28;20027;-57
2023/03/12 16:02:30;;;;;;;;;;;;;;;;;;5030809;28;19994;-57
2023/03/12 16:04:56;;;;;;;;;;;;;;;;;;5030111;28;19964;-58
2023/03/12 16:07:22;;;;;;;;;;;;;;;;;;5029062;28;19929;-57
2023/03/12 16:09:48;;;;;;;;;;;;;;;;;;5027157;28;19983;-57
2023/03/12 16:12:14;;;;;;;;;;;;;;;;;;5025591;28;19936;-57
2023/03/12 16:14:40;;;;;;;;;;;;;;;;;;5029811;28;19948;-57
2023/03/12 16:17:06;;;;;;;;;;;;;;;;;;5027417;28;19925;-57
2023/03/12 16:19:33;;;;;;;;;;;;;;;;;;5030097;28;19936;-57
2023/03/12 16:22:00;;;;;;;;;;;;;;;;;;5027723;28;19972;-58
2023/03/12 16:24:26;;;;;;;;;;;;;;;;;;5031255;28;19933;-57
2023/03/12 16:26:52;;;;;;;;;;;;;;;;;;5025206;28;19994;-57
2023/03/12 16:29:18;;;;;;;;;;;;;;;;;;5026240;28;20811;-57
2023/03/12 16:31:44;;;;;;;;;;;;;;;;;;5035143;28;19925;-58
2023/03/12 16:34:10;;;;;;;;;;;;;;;;;;5037111;28;20007;-58
2023/03/12 16:36:36;;;;;;;;;;;;;;;;;;5043244;28;19976;-57